sensor_id;sensor_type;location;lat;lon;timestamp;P1;durP1;ratioP1;P2;durP2;ratioP2
20621;SDS011;10470;42.670;23.354;2023-05-09T00:00:17;4.33;;;3.97;;
20621;SDS011;10470;42.670;23.354;2023-05-09T00:03:00;3.70;;;3.40;;
20621;SDS011;10470;42.670;23.354;2023-05-09T00:05:43;4.10;;;3.70;;
20621;SDS011;10470;42.670;23.354;2023-05-09T00:08:26;4.17;;;3.77;;
20621;SDS011;10470;42.670;23.354;2023-05-09T00:11:10;4.37;;;3.97;;
20621;SDS011;10470;42.670;23.354;2023-05-09T00:13:53;4.00;;;3.70;;
20621;SDS011;10470;42.670;23.354;2023-05-09T00:16:36;3.97;;;3.67;;
20621;SDS011;10470;42.670;23.354;2023-05-09T00:19:20;4.00;;;3.70;;
20621;SDS011;10470;42.670;23.354;2023-05-09T00:22:03;4.20;;;3.80;;
20621;SDS011;10470;42.670;23.354;2023-05-09T00:24:47;4.37;;;3.63;;
20621;SDS011;10470;42.670;23.354;2023-05-09T00:27:31;3.87;;;3.57;;
20621;SDS011;10470;42.670;23.354;2023-05-09T00:30:15;3.80;;;3.50;;
20621;SDS011;10470;42.670;23.354;2023-05-09T00:32:58;4.37;;;3.97;;
20621;SDS011;10470;42.670;23.354;2023-05-09T00:35:42;4.07;;;3.60;;
20621;SDS011;10470;42.670;23.354;2023-05-09T00:38:26;5.60;;;3.63;;
20621;SDS011;10470;42.670;23.354;2023-05-09T00:41:11;4.40;;;4.00;;
20621;SDS011;10470;42.670;23.354;2023-05-09T00:43:55;4.50;;;3.97;;
20621;SDS011;10470;42.670;23.354;2023-05-09T00:46:39;4.10;;;3.80;;
20621;SDS011;10470;42.670;23.354;2023-05-09T00:49:24;4.40;;;4.00;;
20621;SDS011;10470;42.670;23.354;2023-05-09T00:52:08;4.77;;;4.00;;
20621;SDS011;10470;42.670;23.354;2023-05-09T00:54:53;5.77;;;4.10;;
20621;SDS011;10470;42.670;23.354;2023-05-09T00:57:38;3.90;;;3.60;;
20621;SDS011;10470;42.670;23.354;2023-05-09T01:00:23;4.60;;;4.20;;
20621;SDS011;10470;42.670;23.354;2023-05-09T01:03:07;4.73;;;4.20;;
20621;SDS011;10470;42.670;23.354;2023-05-09T01:06:03;4.60;;;4.20;;
20621;SDS011;10470;42.670;23.354;2023-05-09T01:12:02;4.73;;;4.23;;
20621;SDS011;10470;42.670;23.354;2023-05-09T01:15:23;4.90;;;4.33;;
20621;SDS011;10470;42.670;23.354;2023-05-09T01:18:32;4.17;;;3.80;;
20621;SDS011;10470;42.670;23.354;2023-05-09T01:21:27;4.27;;;3.87;;
20621;SDS011;10470;42.670;23.354;2023-05-09T01:27:41;4.67;;;4.27;;
20621;SDS011;10470;42.670;23.354;2023-05-09T01:30:37;5.23;;;4.33;;
20621;SDS011;10470;42.670;23.354;2023-05-09T01:33:23;4.40;;;4.00;;
20621;SDS011;10470;42.670;23.354;2023-05-09T01:36:11;5.10;;;4.17;;
20621;SDS011;10470;42.670;23.354;2023-05-09T01:39:00;4.77;;;4.37;;
20621;SDS011;10470;42.670;23.354;2023-05-09T01:41:46;4.50;;;4.10;;
20621;SDS011;10470;42.670;23.354;2023-05-09T01:44:37;6.53;;;3.90;;
20621;SDS011;10470;42.670;23.354;2023-05-09T01:47:25;4.30;;;4.00;;
20621;SDS011;10470;42.670;23.354;2023-05-09T01:50:11;5.67;;;4.30;;
20621;SDS011;10470;42.670;23.354;2023-05-09T01:52:57;5.13;;;4.40;;
20621;SDS011;10470;42.670;23.354;2023-05-09T01:55:45;6.30;;;4.50;;
20621;SDS011;10470;42.670;23.354;2023-05-09T01:58:32;4.90;;;4.50;;
20621;SDS011;10470;42.670;23.354;2023-05-09T02:01:18;4.60;;;4.17;;
20621;SDS011;10470;42.670;23.354;2023-05-09T02:04:05;4.13;;;3.80;;
20621;SDS011;10470;42.670;23.354;2023-05-09T02:06:51;5.13;;;4.40;;
20621;SDS011;10470;42.670;23.354;2023-05-09T02:09:38;4.40;;;3.83;;
20621;SDS011;10470;42.670;23.354;2023-05-09T02:12:23;4.30;;;3.90;;
20621;SDS011;10470;42.670;23.354;2023-05-09T02:15:09;4.57;;;4.17;;
20621;SDS011;10470;42.670;23.354;2023-05-09T02:17:55;4.57;;;4.00;;
20621;SDS011;10470;42.670;23.354;2023-05-09T02:20:40;4.57;;;4.23;;
20621;SDS011;10470;42.670;23.354;2023-05-09T02:23:26;4.93;;;4.20;;
20621;SDS011;10470;42.670;23.354;2023-05-09T02:26:11;4.80;;;4.40;;
20621;SDS011;10470;42.670;23.354;2023-05-09T02:28:57;5.77;;;4.07;;
20621;SDS011;10470;42.670;23.354;2023-05-09T02:31:44;5.10;;;4.60;;
20621;SDS011;10470;42.670;23.354;2023-05-09T02:34:32;5.07;;;4.37;;
20621;SDS011;10470;42.670;23.354;2023-05-09T02:37:18;4.87;;;4.47;;
20621;SDS011;10470;42.670;23.354;2023-05-09T02:40:02;5.53;;;4.37;;
20621;SDS011;10470;42.670;23.354;2023-05-09T02:42:49;5.00;;;4.50;;
20621;SDS011;10470;42.670;23.354;2023-05-09T02:45:34;4.83;;;4.43;;
20621;SDS011;10470;42.670;23.354;2023-05-09T02:48:19;4.80;;;4.30;;
20621;SDS011;10470;42.670;23.354;2023-05-09T02:51:05;5.60;;;4.83;;
20621;SDS011;10470;42.670;23.354;2023-05-09T02:53:50;4.60;;;4.20;;
20621;SDS011;10470;42.670;23.354;2023-05-09T02:56:36;5.30;;;4.80;;
20621;SDS011;10470;42.670;23.354;2023-05-09T02:59:19;5.47;;;4.53;;
20621;SDS011;10470;42.670;23.354;2023-05-09T03:02:05;5.23;;;4.73;;
20621;SDS011;10470;42.670;23.354;2023-05-09T03:04:50;7.03;;;5.00;;
20621;SDS011;10470;42.670;23.354;2023-05-09T03:07:36;5.30;;;4.80;;
20621;SDS011;10470;42.670;23.354;2023-05-09T03:10:21;5.23;;;4.73;;
20621;SDS011;10470;42.670;23.354;2023-05-09T03:13:07;5.30;;;4.80;;
20621;SDS011;10470;42.670;23.354;2023-05-09T03:15:51;6.57;;;4.80;;
20621;SDS011;10470;42.670;23.354;2023-05-09T03:18:36;5.37;;;4.73;;
20621;SDS011;10470;42.670;23.354;2023-05-09T03:21:22;7.93;;;4.87;;
20621;SDS011;10470;42.670;23.354;2023-05-09T03:24:08;5.20;;;4.80;;
20621;SDS011;10470;42.670;23.354;2023-05-09T03:26:54;5.97;;;5.20;;
20621;SDS011;10470;42.670;23.354;2023-05-09T03:29:37;6.30;;;5.23;;
20621;SDS011;10470;42.670;23.354;2023-05-09T03:32:22;6.90;;;5.70;;
20621;SDS011;10470;42.670;23.354;2023-05-09T03:35:08;6.23;;;5.63;;
20621;SDS011;10470;42.670;23.354;2023-05-09T03:37:53;5.70;;;5.20;;
20621;SDS011;10470;42.670;23.354;2023-05-09T03:40:38;7.47;;;5.57;;
20621;SDS011;10470;42.670;23.354;2023-05-09T03:43:24;7.53;;;5.30;;
20621;SDS011;10470;42.670;23.354;2023-05-09T03:46:10;6.50;;;5.77;;
20621;SDS011;10470;42.670;23.354;2023-05-09T03:48:55;9.27;;;5.90;;
20621;SDS011;10470;42.670;23.354;2023-05-09T03:51:41;7.60;;;5.67;;
20621;SDS011;10470;42.670;23.354;2023-05-09T03:54:26;5.67;;;5.17;;
20621;SDS011;10470;42.670;23.354;2023-05-09T03:57:11;8.27;;;4.70;;
20621;SDS011;10470;42.670;23.354;2023-05-09T03:59:57;5.47;;;4.97;;
20621;SDS011;10470;42.670;23.354;2023-05-09T04:02:42;5.87;;;5.20;;
20621;SDS011;10470;42.670;23.354;2023-05-09T04:05:28;7.13;;;5.57;;
20621;SDS011;10470;42.670;23.354;2023-05-09T04:08:13;6.43;;;5.43;;
20621;SDS011;10470;42.670;23.354;2023-05-09T04:10:59;7.37;;;6.33;;
20621;SDS011;10470;42.670;23.354;2023-05-09T04:13:44;9.40;;;7.27;;
20621;SDS011;10470;42.670;23.354;2023-05-09T04:16:30;7.77;;;6.00;;
20621;SDS011;10470;42.670;23.354;2023-05-09T04:19:15;6.57;;;5.73;;
20621;SDS011;10470;42.670;23.354;2023-05-09T04:22:00;5.80;;;5.30;;
20621;SDS011;10470;42.670;23.354;2023-05-09T04:24:46;6.57;;;5.37;;
20621;SDS011;10470;42.670;23.354;2023-05-09T04:27:31;6.83;;;5.67;;
20621;SDS011;10470;42.670;23.354;2023-05-09T04:30:17;7.97;;;6.10;;
20621;SDS011;10470;42.670;23.354;2023-05-09T04:32:52;8.37;;;6.20;;
20621;SDS011;10470;42.670;23.354;2023-05-09T04:35:39;6.73;;;5.90;;
20621;SDS011;10470;42.670;23.354;2023-05-09T04:38:25;6.30;;;5.70;;
20621;SDS011;10470;42.670;23.354;2023-05-09T04:41:10;7.30;;;5.70;;
20621;SDS011;10470;42.670;23.354;2023-05-09T04:43:56;5.87;;;5.27;;
20621;SDS011;10470;42.670;23.354;2023-05-09T04:46:41;6.47;;;5.17;;
20621;SDS011;10470;42.670;23.354;2023-05-09T04:49:27;5.27;;;4.77;;
20621;SDS011;10470;42.670;23.354;2023-05-09T04:52:13;6.87;;;5.03;;
20621;SDS011;10470;42.670;23.354;2023-05-09T04:54:58;8.03;;;5.00;;
20621;SDS011;10470;42.670;23.354;2023-05-09T04:57:43;6.27;;;4.90;;
20621;SDS011;10470;42.670;23.354;2023-05-09T05:00:25;7.27;;;4.83;;
20621;SDS011;10470;42.670;23.354;2023-05-09T05:03:10;6.37;;;4.63;;
20621;SDS011;10470;42.670;23.354;2023-05-09T05:05:56;5.90;;;4.03;;
20621;SDS011;10470;42.670;23.354;2023-05-09T05:08:41;4.87;;;3.23;;
20621;SDS011;10470;42.670;23.354;2023-05-09T05:11:27;4.30;;;3.30;;
20621;SDS011;10470;42.670;23.354;2023-05-09T05:14:12;4.50;;;2.70;;
20621;SDS011;10470;42.670;23.354;2023-05-09T05:16:58;3.27;;;2.97;;
20621;SDS011;10470;42.670;23.354;2023-05-09T05:19:43;2.73;;;2.43;;
20621;SDS011;10470;42.670;23.354;2023-05-09T05:22:28;3.10;;;2.50;;
20621;SDS011;10470;42.670;23.354;2023-05-09T05:25:14;4.03;;;2.97;;
20621;SDS011;10470;42.670;23.354;2023-05-09T05:28:01;4.10;;;2.30;;
20621;SDS011;10470;42.670;23.354;2023-05-09T05:30:47;2.83;;;2.20;;
20621;SDS011;10470;42.670;23.354;2023-05-09T05:33:32;2.43;;;1.83;;
20621;SDS011;10470;42.670;23.354;2023-05-09T05:36:08;3.80;;;2.40;;
20621;SDS011;10470;42.670;23.354;2023-05-09T05:38:54;2.00;;;1.90;;
20621;SDS011;10470;42.670;23.354;2023-05-09T05:41:39;6.23;;;2.03;;
20621;SDS011;10470;42.670;23.354;2023-05-09T05:44:25;3.93;;;1.97;;
20621;SDS011;10470;42.670;23.354;2023-05-09T05:47:10;2.13;;;1.93;;
20621;SDS011;10470;42.670;23.354;2023-05-09T05:49:56;2.10;;;1.90;;
20621;SDS011;10470;42.670;23.354;2023-05-09T05:52:41;2.57;;;1.87;;
20621;SDS011;10470;42.670;23.354;2023-05-09T05:55:19;4.77;;;1.93;;
20621;SDS011;10470;42.670;23.354;2023-05-09T05:58:04;2.20;;;1.70;;
20621;SDS011;10470;42.670;23.354;2023-05-09T06:00:50;3.60;;;2.00;;
20621;SDS011;10470;42.670;23.354;2023-05-09T06:03:36;2.10;;;1.80;;
20621;SDS011;10470;42.670;23.354;2023-05-09T06:06:22;3.40;;;2.10;;
20621;SDS011;10470;42.670;23.354;2023-05-09T06:09:08;2.53;;;2.17;;
20621;SDS011;10470;42.670;23.354;2023-05-09T06:11:53;3.17;;;2.00;;
20621;SDS011;10470;42.670;23.354;2023-05-09T06:14:38;3.57;;;1.70;;
20621;SDS011;10470;42.670;23.354;2023-05-09T06:17:24;3.17;;;2.00;;
20621;SDS011;10470;42.670;23.354;2023-05-09T06:20:09;2.87;;;2.00;;
20621;SDS011;10470;42.670;23.354;2023-05-09T06:22:55;3.57;;;1.90;;
20621;SDS011;10470;42.670;23.354;2023-05-09T06:25:40;2.23;;;2.03;;
20621;SDS011;10470;42.670;23.354;2023-05-09T06:28:26;6.20;;;1.83;;
20621;SDS011;10470;42.670;23.354;2023-05-09T06:31:01;7.67;;;1.80;;
20621;SDS011;10470;42.670;23.354;2023-05-09T06:33:47;2.10;;;1.20;;
20621;SDS011;10470;42.670;23.354;2023-05-09T06:36:33;2.13;;;1.30;;
20621;SDS011;10470;42.670;23.354;2023-05-09T06:39:19;2.17;;;1.40;;
20621;SDS011;10470;42.670;23.354;2023-05-09T06:41:55;3.23;;;1.60;;
20621;SDS011;10470;42.670;23.354;2023-05-09T06:44:40;3.10;;;1.40;;
20621;SDS011;10470;42.670;23.354;2023-05-09T06:47:27;2.50;;;1.23;;
20621;SDS011;10470;42.670;23.354;2023-05-09T06:50:13;2.10;;;1.23;;
20621;SDS011;10470;42.670;23.354;2023-05-09T06:52:58;4.03;;;1.50;;
20621;SDS011;10470;42.670;23.354;2023-05-09T06:55:43;1.57;;;1.47;;
20621;SDS011;10470;42.670;23.354;2023-05-09T06:58:29;2.40;;;1.70;;
20621;SDS011;10470;42.670;23.354;2023-05-09T07:01:06;1.37;;;1.27;;
20621;SDS011;10470;42.670;23.354;2023-05-09T07:03:52;3.10;;;1.80;;
20621;SDS011;10470;42.670;23.354;2023-05-09T07:06:37;2.87;;;1.90;;
20621;SDS011;10470;42.670;23.354;2023-05-09T07:09:22;2.73;;;1.60;;
20621;SDS011;10470;42.670;23.354;2023-05-09T07:11:58;1.70;;;1.50;;
20621;SDS011;10470;42.670;23.354;2023-05-09T07:14:45;1.70;;;1.47;;
20621;SDS011;10470;42.670;23.354;2023-05-09T07:17:30;2.73;;;1.30;;
20621;SDS011;10470;42.670;23.354;2023-05-09T07:20:16;1.50;;;1.40;;
20621;SDS011;10470;42.670;23.354;2023-05-09T07:23:02;3.83;;;1.50;;
20621;SDS011;10470;42.670;23.354;2023-05-09T07:25:48;4.10;;;2.20;;
20621;SDS011;10470;42.670;23.354;2023-05-09T07:28:33;6.17;;;2.87;;
20621;SDS011;10470;42.670;23.354;2023-05-09T07:31:19;3.70;;;1.70;;
20621;SDS011;10470;42.670;23.354;2023-05-09T07:34:04;2.60;;;1.80;;
20621;SDS011;10470;42.670;23.354;2023-05-09T07:36:50;3.20;;;1.60;;
20621;SDS011;10470;42.670;23.354;2023-05-09T07:39:35;1.90;;;1.70;;
20621;SDS011;10470;42.670;23.354;2023-05-09T07:42:21;4.50;;;2.00;;
20621;SDS011;10470;42.670;23.354;2023-05-09T07:45:06;2.00;;;1.80;;
20621;SDS011;10470;42.670;23.354;2023-05-09T07:47:50;2.70;;;1.40;;
20621;SDS011;10470;42.670;23.354;2023-05-09T07:50:35;1.73;;;1.40;;
20621;SDS011;10470;42.670;23.354;2023-05-09T07:53:21;2.67;;;1.40;;
20621;SDS011;10470;42.670;23.354;2023-05-09T07:56:06;1.83;;;1.20;;
20621;SDS011;10470;42.670;23.354;2023-05-09T07:58:52;1.43;;;1.33;;
20621;SDS011;10470;42.670;23.354;2023-05-09T08:01:37;3.43;;;1.63;;
20621;SDS011;10470;42.670;23.354;2023-05-09T08:04:23;2.00;;;1.40;;
20621;SDS011;10470;42.670;23.354;2023-05-09T08:07:05;1.60;;;1.40;;
20621;SDS011;10470;42.670;23.354;2023-05-09T08:09:51;1.70;;;1.53;;
20621;SDS011;10470;42.670;23.354;2023-05-09T08:12:37;4.30;;;1.60;;
20621;SDS011;10470;42.670;23.354;2023-05-09T08:15:16;2.73;;;1.40;;
20621;SDS011;10470;42.670;23.354;2023-05-09T08:18:02;1.67;;;1.37;;
20621;SDS011;10470;42.670;23.354;2023-05-09T08:20:47;1.70;;;1.60;;
20621;SDS011;10470;42.670;23.354;2023-05-09T08:23:25;1.63;;;1.30;;
20621;SDS011;10470;42.670;23.354;2023-05-09T08:26:11;4.83;;;1.30;;
20621;SDS011;10470;42.670;23.354;2023-05-09T08:28:56;2.30;;;1.10;;
20621;SDS011;10470;42.670;23.354;2023-05-09T08:31:36;2.80;;;1.20;;
20621;SDS011;10470;42.670;23.354;2023-05-09T08:34:21;3.03;;;1.10;;
20621;SDS011;10470;42.670;23.354;2023-05-09T08:37:07;2.07;;;0.93;;
20621;SDS011;10470;42.670;23.354;2023-05-09T08:39:52;2.83;;;1.30;;
20621;SDS011;10470;42.670;23.354;2023-05-09T08:42:37;1.40;;;1.30;;
20621;SDS011;10470;42.670;23.354;2023-05-09T08:45:25;1.47;;;1.30;;
20621;SDS011;10470;42.670;23.354;2023-05-09T08:48:02;1.87;;;1.40;;
20621;SDS011;10470;42.670;23.354;2023-05-09T08:50:47;1.40;;;1.30;;
20621;SDS011;10470;42.670;23.354;2023-05-09T08:53:33;2.10;;;1.20;;
20621;SDS011;10470;42.670;23.354;2023-05-09T08:56:17;1.27;;;1.17;;
20621;SDS011;10470;42.670;23.354;2023-05-09T08:59:03;1.50;;;1.40;;
20621;SDS011;10470;42.670;23.354;2023-05-09T09:01:49;1.40;;;1.30;;
20621;SDS011;10470;42.670;23.354;2023-05-09T09:04:29;1.33;;;1.00;;
20621;SDS011;10470;42.670;23.354;2023-05-09T09:07:15;1.80;;;1.30;;
20621;SDS011;10470;42.670;23.354;2023-05-09T09:10:02;1.33;;;1.07;;
20621;SDS011;10470;42.670;23.354;2023-05-09T09:12:44;3.73;;;1.30;;
20621;SDS011;10470;42.670;23.354;2023-05-09T09:15:33;1.40;;;1.30;;
20621;SDS011;10470;42.670;23.354;2023-05-09T09:18:28;2.53;;;1.60;;
20621;SDS011;10470;42.670;23.354;2023-05-09T09:21:01;1.47;;;0.90;;
20621;SDS011;10470;42.670;23.354;2023-05-09T09:23:50;1.47;;;1.30;;
20621;SDS011;10470;42.670;23.354;2023-05-09T09:26:45;1.07;;;1.07;;
20621;SDS011;10470;42.670;23.354;2023-05-09T09:29:32;1.27;;;1.17;;
20621;SDS011;10470;42.670;23.354;2023-05-09T09:32:18;3.00;;;1.50;;
20621;SDS011;10470;42.670;23.354;2023-05-09T09:35:04;4.43;;;1.53;;
20621;SDS011;10470;42.670;23.354;2023-05-09T09:37:55;2.57;;;1.60;;
20621;SDS011;10470;42.670;23.354;2023-05-09T09:40:48;1.30;;;1.20;;
20621;SDS011;10470;42.670;23.354;2023-05-09T09:43:28;2.83;;;1.13;;
20621;SDS011;10470;42.670;23.354;2023-05-09T09:46:14;1.50;;;1.40;;
20621;SDS011;10470;42.670;23.354;2023-05-09T09:49:01;1.37;;;1.27;;
20621;SDS011;10470;42.670;23.354;2023-05-09T09:51:43;1.20;;;1.20;;
20621;SDS011;10470;42.670;23.354;2023-05-09T09:54:29;1.50;;;1.37;;
20621;SDS011;10470;42.670;23.354;2023-05-09T09:57:34;1.93;;;1.73;;
20621;SDS011;10470;42.670;23.354;2023-05-09T10:00:25;2.77;;;1.70;;
20621;SDS011;10470;42.670;23.354;2023-05-09T10:03:14;1.60;;;1.50;;
20621;SDS011;10470;42.670;23.354;2023-05-09T10:06:01;3.23;;;1.80;;
20621;SDS011;10470;42.670;23.354;2023-05-09T10:08:47;3.33;;;1.87;;
20621;SDS011;10470;42.670;23.354;2023-05-09T10:11:33;2.07;;;1.50;;
20621;SDS011;10470;42.670;23.354;2023-05-09T10:14:18;2.40;;;1.70;;
20621;SDS011;10470;42.670;23.354;2023-05-09T10:17:06;2.20;;;2.00;;
20621;SDS011;10470;42.670;23.354;2023-05-09T10:19:53;2.23;;;1.60;;
20621;SDS011;10470;42.670;23.354;2023-05-09T10:22:39;6.27;;;2.00;;
20621;SDS011;10470;42.670;23.354;2023-05-09T10:25:43;2.63;;;1.70;;
20621;SDS011;10470;42.670;23.354;2023-05-09T10:28:32;1.60;;;1.50;;
20621;SDS011;10470;42.670;23.354;2023-05-09T10:31:24;2.47;;;1.60;;
20621;SDS011;10470;42.670;23.354;2023-05-09T10:34:11;2.03;;;1.93;;
20621;SDS011;10470;42.670;23.354;2023-05-09T10:36:57;2.10;;;1.90;;
20621;SDS011;10470;42.670;23.354;2023-05-09T10:39:44;3.07;;;1.93;;
20621;SDS011;10470;42.670;23.354;2023-05-09T10:42:30;2.30;;;1.87;;
20621;SDS011;10470;42.670;23.354;2023-05-09T10:45:16;2.30;;;2.17;;
20621;SDS011;10470;42.670;23.354;2023-05-09T10:48:01;1.97;;;1.87;;
20621;SDS011;10470;42.670;23.354;2023-05-09T10:50:51;3.50;;;2.30;;
20621;SDS011;10470;42.670;23.354;2023-05-09T10:56:33;2.50;;;2.30;;
20621;SDS011;10470;42.670;23.354;2023-05-09T10:59:32;2.00;;;1.90;;
20621;SDS011;10470;42.670;23.354;2023-05-09T11:02:18;2.47;;;2.00;;
20621;SDS011;10470;42.670;23.354;2023-05-09T11:05:17;3.50;;;2.20;;
20621;SDS011;10470;42.670;23.354;2023-05-09T11:11:21;4.80;;;2.73;;
20621;SDS011;10470;42.670;23.354;2023-05-09T11:13:58;2.40;;;2.20;;
20621;SDS011;10470;42.670;23.354;2023-05-09T11:17:00;2.97;;;2.77;;
20621;SDS011;10470;42.670;23.354;2023-05-09T11:22:39;2.90;;;2.60;;
20621;SDS011;10470;42.670;23.354;2023-05-09T11:25:26;2.83;;;2.63;;
20621;SDS011;10470;42.670;23.354;2023-05-09T11:28:26;2.87;;;2.40;;
20621;SDS011;10470;42.670;23.354;2023-05-09T11:31:14;2.63;;;2.43;;
20621;SDS011;10470;42.670;23.354;2023-05-09T11:34:01;2.50;;;2.30;;
20621;SDS011;10470;42.670;23.354;2023-05-09T11:36:48;3.07;;;2.87;;
20621;SDS011;10470;42.670;23.354;2023-05-09T11:39:34;2.80;;;2.60;;
20621;SDS011;10470;42.670;23.354;2023-05-09T11:42:21;3.30;;;2.80;;
20621;SDS011;10470;42.670;23.354;2023-05-09T11:45:08;3.10;;;2.50;;
20621;SDS011;10470;42.670;23.354;2023-05-09T11:47:54;3.57;;;2.60;;
20621;SDS011;10470;42.670;23.354;2023-05-09T11:50:41;3.23;;;2.73;;
20621;SDS011;10470;42.670;23.354;2023-05-09T11:53:26;3.17;;;2.93;;
20621;SDS011;10470;42.670;23.354;2023-05-09T11:56:13;2.97;;;2.67;;
20621;SDS011;10470;42.670;23.354;2023-05-09T11:58:59;5.27;;;3.00;;
20621;SDS011;10470;42.670;23.354;2023-05-09T12:01:45;3.40;;;3.20;;
20621;SDS011;10470;42.670;23.354;2023-05-09T12:04:20;3.23;;;3.03;;
20621;SDS011;10470;42.670;23.354;2023-05-09T12:07:05;3.97;;;3.00;;
20621;SDS011;10470;42.670;23.354;2023-05-09T12:09:51;3.43;;;3.13;;
20621;SDS011;10470;42.670;23.354;2023-05-09T12:12:44;3.97;;;3.43;;
20621;SDS011;10470;42.670;23.354;2023-05-09T12:15:36;5.10;;;4.00;;
20621;SDS011;10470;42.670;23.354;2023-05-09T12:18:21;3.63;;;3.33;;
20621;SDS011;10470;42.670;23.354;2023-05-09T12:21:08;5.77;;;3.53;;
20621;SDS011;10470;42.670;23.354;2023-05-09T12:23:54;3.87;;;3.47;;
20621;SDS011;10470;42.670;23.354;2023-05-09T12:26:40;3.97;;;3.20;;
20621;SDS011;10470;42.670;23.354;2023-05-09T12:29:25;3.47;;;3.17;;
20621;SDS011;10470;42.670;23.354;2023-05-09T12:32:07;2.97;;;2.70;;
20621;SDS011;10470;42.670;23.354;2023-05-09T12:34:52;4.93;;;3.17;;
20621;SDS011;10470;42.670;23.354;2023-05-09T12:37:39;7.97;;;3.20;;
20621;SDS011;10470;42.670;23.354;2023-05-09T12:40:24;4.50;;;3.00;;
20621;SDS011;10470;42.670;23.354;2023-05-09T12:43:10;6.47;;;3.57;;
20621;SDS011;10470;42.670;23.354;2023-05-09T12:45:56;5.17;;;3.33;;
20621;SDS011;10470;42.670;23.354;2023-05-09T12:48:42;4.43;;;3.37;;
20621;SDS011;10470;42.670;23.354;2023-05-09T12:51:19;3.43;;;3.17;;
20621;SDS011;10470;42.670;23.354;2023-05-09T12:54:05;4.80;;;3.20;;
20621;SDS011;10470;42.670;23.354;2023-05-09T12:56:55;3.50;;;3.20;;
20621;SDS011;10470;42.670;23.354;2023-05-09T12:59:42;3.27;;;2.97;;
20621;SDS011;10470;42.670;23.354;2023-05-09T13:02:38;3.33;;;3.03;;
20621;SDS011;10470;42.670;23.354;2023-05-09T13:05:25;3.50;;;3.20;;
20621;SDS011;10470;42.670;23.354;2023-05-09T13:08:11;4.03;;;3.23;;
20621;SDS011;10470;42.670;23.354;2023-05-09T13:10:57;5.43;;;3.67;;
20621;SDS011;10470;42.670;23.354;2023-05-09T13:13:44;3.70;;;3.17;;
20621;SDS011;10470;42.670;23.354;2023-05-09T13:16:29;4.23;;;3.33;;
20621;SDS011;10470;42.670;23.354;2023-05-09T13:19:08;4.90;;;3.40;;
20621;SDS011;10470;42.670;23.354;2023-05-09T13:21:54;6.63;;;3.20;;
20621;SDS011;10470;42.670;23.354;2023-05-09T13:24:40;5.23;;;3.13;;
20621;SDS011;10470;42.670;23.354;2023-05-09T13:27:25;3.90;;;3.33;;
20621;SDS011;10470;42.670;23.354;2023-05-09T13:30:12;4.00;;;3.60;;
20621;SDS011;10470;42.670;23.354;2023-05-09T13:32:59;4.77;;;4.00;;
20621;SDS011;10470;42.670;23.354;2023-05-09T13:35:44;5.07;;;3.73;;
20621;SDS011;10470;42.670;23.354;2023-05-09T13:38:30;4.10;;;3.80;;
20621;SDS011;10470;42.670;23.354;2023-05-09T13:41:16;4.10;;;3.70;;
20621;SDS011;10470;42.670;23.354;2023-05-09T13:44:05;3.53;;;3.00;;
20621;SDS011;10470;42.670;23.354;2023-05-09T13:46:48;5.23;;;3.20;;
20621;SDS011;10470;42.670;23.354;2023-05-09T13:49:34;4.73;;;3.53;;
20621;SDS011;10470;42.670;23.354;2023-05-09T13:52:20;4.20;;;3.80;;
20621;SDS011;10470;42.670;23.354;2023-05-09T13:55:06;4.10;;;3.53;;
20621;SDS011;10470;42.670;23.354;2023-05-09T13:57:41;4.23;;;3.80;;
20621;SDS011;10470;42.670;23.354;2023-05-09T14:00:27;3.70;;;3.37;;
20621;SDS011;10470;42.670;23.354;2023-05-09T14:03:12;4.77;;;3.33;;
20621;SDS011;10470;42.670;23.354;2023-05-09T14:05:58;3.73;;;3.37;;
20621;SDS011;10470;42.670;23.354;2023-05-09T14:08:43;9.60;;;3.50;;
20621;SDS011;10470;42.670;23.354;2023-05-09T14:11:29;3.57;;;2.93;;
20621;SDS011;10470;42.670;23.354;2023-05-09T14:14:14;3.83;;;3.30;;
20621;SDS011;10470;42.670;23.354;2023-05-09T14:16:49;3.17;;;2.97;;
20621;SDS011;10470;42.670;23.354;2023-05-09T14:19:35;2.97;;;2.70;;
20621;SDS011;10470;42.670;23.354;2023-05-09T14:22:20;3.13;;;2.93;;
20621;SDS011;10470;42.670;23.354;2023-05-09T14:25:06;3.30;;;3.00;;
20621;SDS011;10470;42.670;23.354;2023-05-09T14:27:45;3.37;;;3.07;;
20621;SDS011;10470;42.670;23.354;2023-05-09T14:30:30;2.60;;;2.40;;
20621;SDS011;10470;42.670;23.354;2023-05-09T14:33:16;3.53;;;2.67;;
20621;SDS011;10470;42.670;23.354;2023-05-09T14:36:01;2.27;;;2.07;;
20621;SDS011;10470;42.670;23.354;2023-05-09T14:38:47;3.10;;;2.20;;
20621;SDS011;10470;42.670;23.354;2023-05-09T14:41:32;3.60;;;2.30;;
20621;SDS011;10470;42.670;23.354;2023-05-09T14:44:18;2.73;;;1.90;;
20621;SDS011;10470;42.670;23.354;2023-05-09T14:46:59;2.13;;;1.80;;
20621;SDS011;10470;42.670;23.354;2023-05-09T14:49:44;2.00;;;1.60;;
20621;SDS011;10470;42.670;23.354;2023-05-09T14:52:30;3.43;;;1.80;;
20621;SDS011;10470;42.670;23.354;2023-05-09T14:55:18;3.00;;;1.90;;
20621;SDS011;10470;42.670;23.354;2023-05-09T14:57:55;1.87;;;1.77;;
20621;SDS011;10470;42.670;23.354;2023-05-09T15:00:41;2.60;;;1.70;;
20621;SDS011;10470;42.670;23.354;2023-05-09T15:03:27;5.13;;;1.90;;
20621;SDS011;10470;42.670;23.354;2023-05-09T15:06:12;2.30;;;2.10;;
20621;SDS011;10470;42.670;23.354;2023-05-09T15:08:58;1.60;;;1.50;;
20621;SDS011;10470;42.670;23.354;2023-05-09T15:11:43;3.20;;;2.27;;
20621;SDS011;10470;42.670;23.354;2023-05-09T15:14:30;1.60;;;1.50;;
20621;SDS011;10470;42.670;23.354;2023-05-09T15:17:10;2.03;;;1.87;;
20621;SDS011;10470;42.670;23.354;2023-05-09T15:19:56;3.53;;;1.90;;
20621;SDS011;10470;42.670;23.354;2023-05-09T15:22:41;1.93;;;1.60;;
20621;SDS011;10470;42.670;23.354;2023-05-09T15:25:28;1.87;;;1.77;;
20621;SDS011;10470;42.670;23.354;2023-05-09T15:28:04;2.63;;;1.57;;
20621;SDS011;10470;42.670;23.354;2023-05-09T15:30:50;1.40;;;1.30;;
20621;SDS011;10470;42.670;23.354;2023-05-09T15:33:36;1.97;;;1.40;;
20621;SDS011;10470;42.670;23.354;2023-05-09T15:36:21;2.30;;;1.70;;
20621;SDS011;10470;42.670;23.354;2023-05-09T15:39:07;3.33;;;1.50;;
20621;SDS011;10470;42.670;23.354;2023-05-09T15:41:52;2.13;;;1.30;;
20621;SDS011;10470;42.670;23.354;2023-05-09T15:44:38;1.83;;;1.43;;
20621;SDS011;10470;42.670;23.354;2023-05-09T15:47:15;1.47;;;1.37;;
20621;SDS011;10470;42.670;23.354;2023-05-09T15:50:01;2.00;;;1.63;;
20621;SDS011;10470;42.670;23.354;2023-05-09T15:52:47;1.90;;;1.80;;
20621;SDS011;10470;42.670;23.354;2023-05-09T15:55:32;2.33;;;1.70;;
20621;SDS011;10470;42.670;23.354;2023-05-09T15:58:14;3.30;;;2.00;;
20621;SDS011;10470;42.670;23.354;2023-05-09T16:01:00;1.60;;;1.50;;
20621;SDS011;10470;42.670;23.354;2023-05-09T16:03:49;2.27;;;1.70;;
20621;SDS011;10470;42.670;23.354;2023-05-09T16:06:35;1.70;;;1.60;;
20621;SDS011;10470;42.670;23.354;2023-05-09T16:09:21;1.97;;;1.73;;
20621;SDS011;10470;42.670;23.354;2023-05-09T16:12:06;2.60;;;1.60;;
20621;SDS011;10470;42.670;23.354;2023-05-09T16:14:53;1.70;;;1.60;;
20621;SDS011;10470;42.670;23.354;2023-05-09T16:17:24;3.30;;;1.90;;
20621;SDS011;10470;42.670;23.354;2023-05-09T16:20:13;1.90;;;1.80;;
20621;SDS011;10470;42.670;23.354;2023-05-09T16:22:58;1.80;;;1.70;;
20621;SDS011;10470;42.670;23.354;2023-05-09T16:25:44;3.47;;;1.90;;
20621;SDS011;10470;42.670;23.354;2023-05-09T16:28:19;2.43;;;2.20;;
20621;SDS011;10470;42.670;23.354;2023-05-09T16:31:07;2.70;;;1.53;;
20621;SDS011;10470;42.670;23.354;2023-05-09T16:33:53;1.70;;;1.60;;
20621;SDS011;10470;42.670;23.354;2023-05-09T16:36:38;2.97;;;1.70;;